sensor_id;sensor_type;location;lat;lon;timestamp;P1;durP1;ratioP1;P2;durP2;ratioP2
71696;SDS011;68167;59.120;37.898;2023-07-29T00:01:46;16.37;;;5.60;;
71696;SDS011;68167;59.120;37.898;2023-07-29T00:04:12;9.50;;;4.83;;
71696;SDS011;68167;59.120;37.898;2023-07-29T00:06:39;13.93;;;4.77;;
71696;SDS011;68167;59.120;37.898;2023-07-29T00:09:05;11.53;;;4.60;;
71696;SDS011;68167;59.120;37.898;2023-07-29T00:11:31;8.60;;;4.07;;
71696;SDS011;68167;59.120;37.898;2023-07-29T00:14:00;12.03;;;4.10;;
71696;SDS011;68167;59.120;37.898;2023-07-29T00:16:27;12.07;;;3.67;;
71696;SDS011;68167;59.120;37.898;2023-07-29T00:18:53;8.60;;;3.50;;
71696;SDS011;68167;59.120;37.898;2023-07-29T00:21:20;8.67;;;3.57;;
71696;SDS011;68167;59.120;37.898;2023-07-29T00:23:46;7.93;;;3.60;;
71696;SDS011;68167;59.120;37.898;2023-07-29T00:26:13;5.63;;;3.50;;
71696;SDS011;68167;59.120;37.898;2023-07-29T00:28:39;5.13;;;3.63;;
71696;SDS011;68167;59.120;37.898;2023-07-29T00:31:06;6.10;;;3.50;;
71696;SDS011;68167;59.120;37.898;2023-07-29T00:33:34;7.53;;;4.30;;
71696;SDS011;68167;59.120;37.898;2023-07-29T00:36:00;6.80;;;3.87;;
71696;SDS011;68167;59.120;37.898;2023-07-29T00:38:28;6.00;;;3.47;;
71696;SDS011;68167;59.120;37.898;2023-07-29T00:40:58;10.83;;;3.50;;
71696;SDS011;68167;59.120;37.898;2023-07-29T00:43:26;5.57;;;3.37;;
71696;SDS011;68167;59.120;37.898;2023-07-29T00:45:52;9.73;;;3.50;;
71696;SDS011;68167;59.120;37.898;2023-07-29T00:48:19;8.23;;;3.37;;
71696;SDS011;68167;59.120;37.898;2023-07-29T00:50:45;5.97;;;3.30;;
71696;SDS011;68167;59.120;37.898;2023-07-29T00:53:12;8.27;;;3.80;;
71696;SDS011;68167;59.120;37.898;2023-07-29T00:55:38;5.97;;;3.60;;
71696;SDS011;68167;59.120;37.898;2023-07-29T00:58:05;6.07;;;3.30;;
71696;SDS011;68167;59.120;37.898;2023-07-29T01:00:32;4.67;;;3.70;;
71696;SDS011;68167;59.120;37.898;2023-07-29T01:02:59;6.97;;;3.80;;
71696;SDS011;68167;59.120;37.898;2023-07-29T01:05:27;4.97;;;3.20;;
71696;SDS011;68167;59.120;37.898;2023-07-29T01:09:02;6.20;;;3.43;;
71696;SDS011;68167;59.120;37.898;2023-07-29T01:11:08;5.17;;;3.77;;
71696;SDS011;68167;59.120;37.898;2023-07-29T01:13:43;7.20;;;3.57;;
71696;SDS011;68167;59.120;37.898;2023-07-29T01:16:16;4.60;;;3.60;;
71696;SDS011;68167;59.120;37.898;2023-07-29T01:18:47;4.07;;;3.43;;
71696;SDS011;68167;59.120;37.898;2023-07-29T01:21:15;6.10;;;3.80;;
71696;SDS011;68167;59.120;37.898;2023-07-29T01:23:44;7.03;;;4.37;;
71696;SDS011;68167;59.120;37.898;2023-07-29T01:26:10;9.10;;;4.03;;
71696;SDS011;68167;59.120;37.898;2023-07-29T01:28:37;6.50;;;3.90;;
71696;SDS011;68167;59.120;37.898;2023-07-29T01:33:39;8.50;;;3.80;;
71696;SDS011;68167;59.120;37.898;2023-07-29T01:36:12;7.83;;;4.20;;
71696;SDS011;68167;59.120;37.898;2023-07-29T01:38:41;16.17;;;5.00;;
71696;SDS011;68167;59.120;37.898;2023-07-29T01:41:10;11.80;;;4.67;;
71696;SDS011;68167;59.120;37.898;2023-07-29T01:43:37;9.20;;;4.30;;
71696;SDS011;68167;59.120;37.898;2023-07-29T01:46:10;7.93;;;4.13;;
71696;SDS011;68167;59.120;37.898;2023-07-29T01:48:38;9.73;;;4.20;;
71696;SDS011;68167;59.120;37.898;2023-07-29T01:51:05;7.40;;;4.10;;
71696;SDS011;68167;59.120;37.898;2023-07-29T01:53:32;9.50;;;4.17;;
71696;SDS011;68167;59.120;37.898;2023-07-29T01:55:59;8.40;;;4.17;;
71696;SDS011;68167;59.120;37.898;2023-07-29T01:58:26;9.63;;;4.37;;
71696;SDS011;68167;59.120;37.898;2023-07-29T02:00:52;6.93;;;4.10;;
71696;SDS011;68167;59.120;37.898;2023-07-29T02:03:18;10.70;;;4.17;;
71696;SDS011;68167;59.120;37.898;2023-07-29T02:05:45;8.20;;;3.97;;
71696;SDS011;68167;59.120;37.898;2023-07-29T02:08:11;7.47;;;3.80;;
71696;SDS011;68167;59.120;37.898;2023-07-29T02:10:37;11.00;;;3.93;;
71696;SDS011;68167;59.120;37.898;2023-07-29T02:13:04;10.97;;;4.80;;
71696;SDS011;68167;59.120;37.898;2023-07-29T02:15:31;8.80;;;4.00;;
71696;SDS011;68167;59.120;37.898;2023-07-29T02:17:58;9.30;;;4.17;;
71696;SDS011;68167;59.120;37.898;2023-07-29T02:20:25;7.17;;;3.80;;
71696;SDS011;68167;59.120;37.898;2023-07-29T02:22:52;13.97;;;3.90;;
71696;SDS011;68167;59.120;37.898;2023-07-29T02:25:18;9.93;;;4.00;;
71696;SDS011;68167;59.120;37.898;2023-07-29T02:27:45;13.20;;;3.90;;
71696;SDS011;68167;59.120;37.898;2023-07-29T02:30:12;15.47;;;5.03;;
71696;SDS011;68167;59.120;37.898;2023-07-29T02:32:38;11.27;;;4.40;;
71696;SDS011;68167;59.120;37.898;2023-07-29T02:35:05;9.13;;;4.33;;
71696;SDS011;68167;59.120;37.898;2023-07-29T02:37:32;16.67;;;4.57;;
71696;SDS011;68167;59.120;37.898;2023-07-29T02:39:59;8.80;;;4.13;;
71696;SDS011;68167;59.120;37.898;2023-07-29T02:42:26;10.33;;;5.00;;
71696;SDS011;68167;59.120;37.898;2023-07-29T02:44:52;14.27;;;4.70;;
71696;SDS011;68167;59.120;37.898;2023-07-29T02:47:18;10.23;;;4.70;;
71696;SDS011;68167;59.120;37.898;2023-07-29T02:49:45;13.30;;;4.80;;
71696;SDS011;68167;59.120;37.898;2023-07-29T02:52:11;12.57;;;4.80;;
71696;SDS011;68167;59.120;37.898;2023-07-29T02:54:37;13.03;;;4.90;;
71696;SDS011;68167;59.120;37.898;2023-07-29T02:57:04;14.47;;;4.73;;
71696;SDS011;68167;59.120;37.898;2023-07-29T02:59:30;14.40;;;5.17;;
71696;SDS011;68167;59.120;37.898;2023-07-29T03:01:56;14.30;;;4.60;;
71696;SDS011;68167;59.120;37.898;2023-07-29T03:04:23;14.73;;;5.27;;
71696;SDS011;68167;59.120;37.898;2023-07-29T03:06:50;7.10;;;3.43;;
71696;SDS011;68167;59.120;37.898;2023-07-29T03:09:17;10.83;;;4.03;;
71696;SDS011;68167;59.120;37.898;2023-07-29T03:11:43;10.33;;;3.93;;
71696;SDS011;68167;59.120;37.898;2023-07-29T03:14:10;10.43;;;4.97;;
71696;SDS011;68167;59.120;37.898;2023-07-29T03:16:36;9.87;;;3.60;;
71696;SDS011;68167;59.120;37.898;2023-07-29T03:19:02;7.27;;;3.77;;
71696;SDS011;68167;59.120;37.898;2023-07-29T03:21:29;7.13;;;3.70;;
71696;SDS011;68167;59.120;37.898;2023-07-29T03:23:55;9.90;;;3.50;;
71696;SDS011;68167;59.120;37.898;2023-07-29T03:26:21;7.97;;;3.50;;
71696;SDS011;68167;59.120;37.898;2023-07-29T03:28:48;6.10;;;3.40;;
71696;SDS011;68167;59.120;37.898;2023-07-29T03:31:14;6.07;;;3.20;;
71696;SDS011;68167;59.120;37.898;2023-07-29T03:33:40;11.43;;;3.33;;
71696;SDS011;68167;59.120;37.898;2023-07-29T03:36:06;7.67;;;3.33;;
71696;SDS011;68167;59.120;37.898;2023-07-29T03:38:33;10.20;;;3.73;;
71696;SDS011;68167;59.120;37.898;2023-07-29T03:41:01;7.07;;;3.57;;
71696;SDS011;68167;59.120;37.898;2023-07-29T03:43:29;13.13;;;3.80;;
71696;SDS011;68167;59.120;37.898;2023-07-29T03:45:57;6.53;;;3.87;;
71696;SDS011;68167;59.120;37.898;2023-07-29T03:48:23;18.20;;;4.37;;
71696;SDS011;68167;59.120;37.898;2023-07-29T03:50:50;11.40;;;4.50;;
71696;SDS011;68167;59.120;37.898;2023-07-29T03:53:16;9.70;;;3.73;;
71696;SDS011;68167;59.120;37.898;2023-07-29T03:55:43;13.03;;;3.93;;
71696;SDS011;68167;59.120;37.898;2023-07-29T03:58:09;7.87;;;3.60;;
71696;SDS011;68167;59.120;37.898;2023-07-29T04:00:35;13.53;;;4.07;;
71696;SDS011;68167;59.120;37.898;2023-07-29T04:03:02;7.37;;;3.43;;
71696;SDS011;68167;59.120;37.898;2023-07-29T04:05:28;5.07;;;2.97;;
71696;SDS011;68167;59.120;37.898;2023-07-29T04:07:54;6.03;;;3.40;;
71696;SDS011;68167;59.120;37.898;2023-07-29T04:10:21;8.83;;;3.30;;
71696;SDS011;68167;59.120;37.898;2023-07-29T04:12:47;6.57;;;3.40;;
71696;SDS011;68167;59.120;37.898;2023-07-29T04:15:14;5.53;;;3.50;;
71696;SDS011;68167;59.120;37.898;2023-07-29T04:17:40;12.77;;;3.87;;
71696;SDS011;68167;59.120;37.898;2023-07-29T04:20:07;9.87;;;4.40;;
71696;SDS011;68167;59.120;37.898;2023-07-29T04:22:38;6.93;;;3.80;;
71696;SDS011;68167;59.120;37.898;2023-07-29T04:25:04;9.40;;;4.17;;
71696;SDS011;68167;59.120;37.898;2023-07-29T04:27:31;8.47;;;4.23;;
71696;SDS011;68167;59.120;37.898;2023-07-29T04:29:57;13.17;;;3.80;;
71696;SDS011;68167;59.120;37.898;2023-07-29T04:32:24;11.93;;;4.20;;
71696;SDS011;68167;59.120;37.898;2023-07-29T04:34:51;9.90;;;4.27;;
71696;SDS011;68167;59.120;37.898;2023-07-29T04:37:17;8.97;;;4.00;;
71696;SDS011;68167;59.120;37.898;2023-07-29T04:39:44;9.90;;;4.50;;
71696;SDS011;68167;59.120;37.898;2023-07-29T04:42:10;9.50;;;4.20;;
71696;SDS011;68167;59.120;37.898;2023-07-29T04:44:37;7.93;;;4.30;;
71696;SDS011;68167;59.120;37.898;2023-07-29T04:47:03;5.93;;;4.37;;
71696;SDS011;68167;59.120;37.898;2023-07-29T04:49:30;11.00;;;5.17;;
71696;SDS011;68167;59.120;37.898;2023-07-29T04:51:56;12.23;;;4.77;;
71696;SDS011;68167;59.120;37.898;2023-07-29T04:54:23;14.50;;;5.70;;
71696;SDS011;68167;59.120;37.898;2023-07-29T04:56:49;14.63;;;6.83;;
71696;SDS011;68167;59.120;37.898;2023-07-29T04:59:17;23.07;;;8.47;;
71696;SDS011;68167;59.120;37.898;2023-07-29T05:01:43;18.97;;;8.93;;
71696;SDS011;68167;59.120;37.898;2023-07-29T05:04:09;12.53;;;5.70;;
71696;SDS011;68167;59.120;37.898;2023-07-29T05:06:36;7.27;;;4.73;;
71696;SDS011;68167;59.120;37.898;2023-07-29T05:09:15;9.57;;;5.37;;
71696;SDS011;68167;59.120;37.898;2023-07-29T05:11:42;14.13;;;5.80;;
71696;SDS011;68167;59.120;37.898;2023-07-29T05:14:12;18.20;;;7.37;;
71696;SDS011;68167;59.120;37.898;2023-07-29T05:16:39;18.70;;;8.30;;
71696;SDS011;68167;59.120;37.898;2023-07-29T05:19:05;19.90;;;8.83;;
71696;SDS011;68167;59.120;37.898;2023-07-29T05:21:32;13.20;;;6.37;;
71696;SDS011;68167;59.120;37.898;2023-07-29T05:23:58;14.77;;;6.20;;
71696;SDS011;68167;59.120;37.898;2023-07-29T05:26:25;13.13;;;5.57;;
71696;SDS011;68167;59.120;37.898;2023-07-29T05:28:51;14.50;;;5.67;;
71696;SDS011;68167;59.120;37.898;2023-07-29T05:31:17;12.03;;;5.40;;
71696;SDS011;68167;59.120;37.898;2023-07-29T05:33:44;16.20;;;6.60;;
71696;SDS011;68167;59.120;37.898;2023-07-29T05:36:10;13.07;;;5.60;;
71696;SDS011;68167;59.120;37.898;2023-07-29T05:38:37;14.60;;;5.80;;
71696;SDS011;68167;59.120;37.898;2023-07-29T05:41:03;14.20;;;6.60;;
71696;SDS011;68167;59.120;37.898;2023-07-29T05:43:30;13.33;;;5.83;;
71696;SDS011;68167;59.120;37.898;2023-07-29T05:45:56;14.33;;;5.77;;
71696;SDS011;68167;59.120;37.898;2023-07-29T05:48:23;16.00;;;5.63;;
71696;SDS011;68167;59.120;37.898;2023-07-29T05:50:50;17.47;;;7.80;;
71696;SDS011;68167;59.120;37.898;2023-07-29T05:53:16;12.53;;;6.80;;
71696;SDS011;68167;59.120;37.898;2023-07-29T05:55:43;20.00;;;9.90;;
71696;SDS011;68167;59.120;37.898;2023-07-29T05:58:10;13.47;;;6.60;;
71696;SDS011;68167;59.120;37.898;2023-07-29T06:00:36;12.13;;;6.20;;
71696;SDS011;68167;59.120;37.898;2023-07-29T06:03:03;15.43;;;6.60;;
71696;SDS011;68167;59.120;37.898;2023-07-29T06:05:29;17.10;;;6.93;;
71696;SDS011;68167;59.120;37.898;2023-07-29T06:07:55;17.43;;;7.00;;
71696;SDS011;68167;59.120;37.898;2023-07-29T06:10:22;20.30;;;6.67;;
71696;SDS011;68167;59.120;37.898;2023-07-29T06:12:48;27.70;;;6.77;;
71696;SDS011;68167;59.120;37.898;2023-07-29T06:15:15;22.17;;;6.70;;
71696;SDS011;68167;59.120;37.898;2023-07-29T06:17:42;19.20;;;6.17;;
71696;SDS011;68167;59.120;37.898;2023-07-29T06:20:08;14.80;;;5.77;;
71696;SDS011;68167;59.120;37.898;2023-07-29T06:22:35;19.57;;;6.73;;
71696;SDS011;68167;59.120;37.898;2023-07-29T06:25:02;18.50;;;6.33;;
71696;SDS011;68167;59.120;37.898;2023-07-29T06:27:30;14.43;;;5.93;;
71696;SDS011;68167;59.120;37.898;2023-07-29T06:29:56;12.83;;;5.73;;
71696;SDS011;68167;59.120;37.898;2023-07-29T06:32:23;22.50;;;11.47;;
71696;SDS011;68167;59.120;37.898;2023-07-29T06:34:49;32.80;;;19.00;;
71696;SDS011;68167;59.120;37.898;2023-07-29T06:37:17;15.87;;;6.23;;
71696;SDS011;68167;59.120;37.898;2023-07-29T06:39:44;17.53;;;5.90;;
71696;SDS011;68167;59.120;37.898;2023-07-29T06:42:10;19.27;;;6.30;;
71696;SDS011;68167;59.120;37.898;2023-07-29T06:44:36;11.97;;;5.40;;
71696;SDS011;68167;59.120;37.898;2023-07-29T06:47:03;8.17;;;4.97;;
71696;SDS011;68167;59.120;37.898;2023-07-29T06:49:29;15.60;;;5.43;;
71696;SDS011;68167;59.120;37.898;2023-07-29T06:51:55;13.23;;;5.50;;
71696;SDS011;68167;59.120;37.898;2023-07-29T06:54:25;13.03;;;6.03;;
71696;SDS011;68167;59.120;37.898;2023-07-29T06:56:54;13.83;;;5.80;;
71696;SDS011;68167;59.120;37.898;2023-07-29T06:59:20;16.63;;;5.60;;
71696;SDS011;68167;59.120;37.898;2023-07-29T07:01:47;13.83;;;5.30;;
71696;SDS011;68167;59.120;37.898;2023-07-29T07:04:13;14.73;;;5.40;;
71696;SDS011;68167;59.120;37.898;2023-07-29T07:06:39;17.10;;;6.00;;
71696;SDS011;68167;59.120;37.898;2023-07-29T07:09:06;12.63;;;5.57;;
71696;SDS011;68167;59.120;37.898;2023-07-29T07:11:32;17.07;;;6.80;;
71696;SDS011;68167;59.120;37.898;2023-07-29T07:13:59;16.47;;;6.07;;
71696;SDS011;68167;59.120;37.898;2023-07-29T07:16:26;14.03;;;6.37;;
71696;SDS011;68167;59.120;37.898;2023-07-29T07:18:54;16.83;;;5.80;;
71696;SDS011;68167;59.120;37.898;2023-07-29T07:21:21;14.70;;;6.47;;
71696;SDS011;68167;59.120;37.898;2023-07-29T07:23:49;19.37;;;6.67;;
71696;SDS011;68167;59.120;37.898;2023-07-29T07:26:16;13.10;;;5.77;;
71696;SDS011;68167;59.120;37.898;2023-07-29T07:28:42;11.87;;;5.20;;
71696;SDS011;68167;59.120;37.898;2023-07-29T07:31:08;11.93;;;5.27;;
71696;SDS011;68167;59.120;37.898;2023-07-29T07:33:35;13.33;;;4.70;;
71696;SDS011;68167;59.120;37.898;2023-07-29T07:36:01;14.50;;;4.70;;
71696;SDS011;68167;59.120;37.898;2023-07-29T07:38:27;13.00;;;4.37;;
71696;SDS011;68167;59.120;37.898;2023-07-29T07:40:54;10.83;;;4.60;;
71696;SDS011;68167;59.120;37.898;2023-07-29T07:43:22;7.87;;;3.80;;
71696;SDS011;68167;59.120;37.898;2023-07-29T07:45:48;8.67;;;3.73;;
71696;SDS011;68167;59.120;37.898;2023-07-29T07:48:14;8.80;;;3.30;;
71696;SDS011;68167;59.120;37.898;2023-07-29T07:50:42;8.10;;;4.90;;
71696;SDS011;68167;59.120;37.898;2023-07-29T07:53:09;7.00;;;3.27;;
71696;SDS011;68167;59.120;37.898;2023-07-29T07:55:35;9.10;;;3.40;;
71696;SDS011;68167;59.120;37.898;2023-07-29T07:58:01;6.83;;;3.03;;
71696;SDS011;68167;59.120;37.898;2023-07-29T08:00:28;4.67;;;2.93;;
71696;SDS011;68167;59.120;37.898;2023-07-29T08:02:54;3.73;;;2.90;;
71696;SDS011;68167;59.120;37.898;2023-07-29T08:05:20;4.07;;;2.30;;
71696;SDS011;68167;59.120;37.898;2023-07-29T08:07:46;6.00;;;3.40;;
71696;SDS011;68167;59.120;37.898;2023-07-29T08:10:13;7.03;;;3.50;;
71696;SDS011;68167;59.120;37.898;2023-07-29T08:12:39;6.37;;;3.37;;
71696;SDS011;68167;59.120;37.898;2023-07-29T08:15:05;6.07;;;3.20;;
71696;SDS011;68167;59.120;37.898;2023-07-29T08:17:32;6.87;;;3.30;;
71696;SDS011;68167;59.120;37.898;2023-07-29T08:19:58;5.80;;;3.97;;
71696;SDS011;68167;59.120;37.898;2023-07-29T08:22:24;4.50;;;3.00;;
71696;SDS011;68167;59.120;37.898;2023-07-29T08:24:51;6.47;;;3.33;;
71696;SDS011;68167;59.120;37.898;2023-07-29T08:27:18;9.63;;;3.40;;
71696;SDS011;68167;59.120;37.898;2023-07-29T08:29:44;6.07;;;3.33;;
71696;SDS011;68167;59.120;37.898;2023-07-29T08:32:10;5.20;;;3.07;;
71696;SDS011;68167;59.120;37.898;2023-07-29T08:34:37;6.57;;;3.00;;
71696;SDS011;68167;59.120;37.898;2023-07-29T08:37:03;6.50;;;3.50;;
71696;SDS011;68167;59.120;37.898;2023-07-29T08:39:29;7.40;;;3.03;;
71696;SDS011;68167;59.120;37.898;2023-07-29T08:42:03;8.33;;;3.70;;
71696;SDS011;68167;59.120;37.898;2023-07-29T08:44:51;5.33;;;3.30;;
71696;SDS011;68167;59.120;37.898;2023-07-29T08:47:21;10.60;;;3.50;;
71696;SDS011;68167;59.120;37.898;2023-07-29T08:49:47;8.33;;;3.07;;
71696;SDS011;68167;59.120;37.898;2023-07-29T08:52:16;5.47;;;2.77;;
71696;SDS011;68167;59.120;37.898;2023-07-29T08:54:44;4.17;;;3.00;;
71696;SDS011;68167;59.120;37.898;2023-07-29T08:57:10;8.93;;;3.13;;
71696;SDS011;68167;59.120;37.898;2023-07-29T08:59:37;6.67;;;3.40;;
71696;SDS011;68167;59.120;37.898;2023-07-29T09:02:03;5.63;;;3.20;;
71696;SDS011;68167;59.120;37.898;2023-07-29T09:04:30;8.67;;;3.17;;
71696;SDS011;68167;59.120;37.898;2023-07-29T09:06:56;6.20;;;2.73;;
71696;SDS011;68167;59.120;37.898;2023-07-29T09:09:25;5.50;;;3.30;;
71696;SDS011;68167;59.120;37.898;2023-07-29T09:11:51;5.50;;;3.40;;
71696;SDS011;68167;59.120;37.898;2023-07-29T09:14:17;5.60;;;3.03;;
71696;SDS011;68167;59.120;37.898;2023-07-29T09:16:44;5.43;;;3.17;;
71696;SDS011;68167;59.120;37.898;2023-07-29T09:19:11;7.17;;;3.77;;
71696;SDS011;68167;59.120;37.898;2023-07-29T09:21:38;7.50;;;2.80;;
71696;SDS011;68167;59.120;37.898;2023-07-29T09:24:06;4.07;;;3.20;;
71696;SDS011;68167;59.120;37.898;2023-07-29T09:26:33;5.23;;;3.03;;
71696;SDS011;68167;59.120;37.898;2023-07-29T09:29:00;3.53;;;2.53;;
71696;SDS011;68167;59.120;37.898;2023-07-29T09:31:27;7.57;;;2.83;;
71696;SDS011;68167;59.120;37.898;2023-07-29T09:33:58;5.47;;;2.67;;
71696;SDS011;68167;59.120;37.898;2023-07-29T09:36:26;4.87;;;2.10;;
71696;SDS011;68167;59.120;37.898;2023-07-29T09:38:56;5.13;;;2.30;;
71696;SDS011;68167;59.120;37.898;2023-07-29T09:41:23;5.60;;;2.37;;
71696;SDS011;68167;59.120;37.898;2023-07-29T09:43:55;4.80;;;1.87;;
71696;SDS011;68167;59.120;37.898;2023-07-29T09:46:33;4.77;;;2.10;;
71696;SDS011;68167;59.120;37.898;2023-07-29T09:49:03;5.17;;;2.27;;
71696;SDS011;68167;59.120;37.898;2023-07-29T09:51:31;7.27;;;2.53;;
71696;SDS011;68167;59.120;37.898;2023-07-29T09:54:03;5.70;;;2.30;;
71696;SDS011;68167;59.120;37.898;2023-07-29T09:56:29;6.77;;;2.37;;
71696;SDS011;68167;59.120;37.898;2023-07-29T09:58:56;4.47;;;1.90;;
71696;SDS011;68167;59.120;37.898;2023-07-29T10:01:23;2.57;;;2.07;;
71696;SDS011;68167;59.120;37.898;2023-07-29T10:03:50;3.60;;;2.37;;
71696;SDS011;68167;59.120;37.898;2023-07-29T10:06:17;5.57;;;2.23;;
71696;SDS011;68167;59.120;37.898;2023-07-29T10:08:44;6.17;;;2.47;;
71696;SDS011;68167;59.120;37.898;2023-07-29T10:11:11;5.07;;;2.90;;
71696;SDS011;68167;59.120;37.898;2023-07-29T10:13:38;6.07;;;3.20;;
71696;SDS011;68167;59.120;37.898;2023-07-29T10:16:05;7.10;;;2.97;;
71696;SDS011;68167;59.120;37.898;2023-07-29T10:18:32;3.57;;;2.73;;
71696;SDS011;68167;59.120;37.898;2023-07-29T10:21:00;3.43;;;2.97;;
71696;SDS011;68167;59.120;37.898;2023-07-29T10:23:27;9.77;;;4.00;;
71696;SDS011;68167;59.120;37.898;2023-07-29T10:26:04;10.73;;;6.03;;
71696;SDS011;68167;59.120;37.898;2023-07-29T10:28:32;4.53;;;2.70;;
71696;SDS011;68167;59.120;37.898;2023-07-29T10:31:00;5.83;;;3.50;;
71696;SDS011;68167;59.120;37.898;2023-07-29T10:33:30;5.80;;;2.97;;
71696;SDS011;68167;59.120;37.898;2023-07-29T10:35:59;2.83;;;2.40;;
71696;SDS011;68167;59.120;37.898;2023-07-29T10:38:26;5.60;;;3.37;;
71696;SDS011;68167;59.120;37.898;2023-07-29T10:40:54;5.57;;;2.70;;
71696;SDS011;68167;59.120;37.898;2023-07-29T10:43:31;4.43;;;2.70;;
71696;SDS011;68167;59.120;37.898;2023-07-29T10:48:44;5.13;;;2.37;;
71696;SDS011;68167;59.120;37.898;2023-07-29T10:53:56;3.20;;;2.17;;
71696;SDS011;68167;59.120;37.898;2023-07-29T10:56:32;4.90;;;2.00;;
71696;SDS011;68167;59.120;37.898;2023-07-29T11:01:40;4.00;;;2.73;;
71696;SDS011;68167;59.120;37.898;2023-07-29T11:07:29;6.07;;;2.90;;
71696;SDS011;68167;59.120;37.898;2023-07-29T11:15:15;4.53;;;2.80;;
71696;SDS011;68167;59.120;37.898;2023-07-29T11:17:44;3.97;;;2.53;;
71696;SDS011;68167;59.120;37.898;2023-07-29T11:20:16;7.27;;;3.47;;
71696;SDS011;68167;59.120;37.898;2023-07-29T11:22:43;4.90;;;2.50;;
71696;SDS011;68167;59.120;37.898;2023-07-29T11:25:11;5.13;;;2.47;;
71696;SDS011;68167;59.120;37.898;2023-07-29T11:27:38;4.40;;;2.30;;
71696;SDS011;68167;59.120;37.898;2023-07-29T11:30:06;3.63;;;2.53;;
71696;SDS011;68167;59.120;37.898;2023-07-29T11:32:34;5.37;;;2.43;;
71696;SDS011;68167;59.120;37.898;2023-07-29T11:35:05;7.10;;;4.30;;
71696;SDS011;68167;59.120;37.898;2023-07-29T11:37:36;5.03;;;2.53;;
71696;SDS011;68167;59.120;37.898;2023-07-29T11:40:06;5.00;;;2.60;;
71696;SDS011;68167;59.120;37.898;2023-07-29T11:42:36;5.03;;;2.33;;
71696;SDS011;68167;59.120;37.898;2023-07-29T11:45:03;6.30;;;3.60;;
71696;SDS011;68167;59.120;37.898;2023-07-29T11:47:33;2.30;;;1.80;;
71696;SDS011;68167;59.120;37.898;2023-07-29T11:50:04;1.67;;;1.50;;
71696;SDS011;68167;59.120;37.898;2023-07-29T11:52:32;2.67;;;1.50;;
71696;SDS011;68167;59.120;37.898;2023-07-29T11:55:00;3.77;;;1.67;;
71696;SDS011;68167;59.120;37.898;2023-07-29T11:57:29;3.77;;;1.80;;
71696;SDS011;68167;59.120;37.898;2023-07-29T12:00:01;7.17;;;2.60;;
71696;SDS011;68167;59.120;37.898;2023-07-29T12:02:36;4.63;;;3.10;;
71696;SDS011;68167;59.120;37.898;2023-07-29T12:05:04;4.83;;;1.80;;
71696;SDS011;68167;59.120;37.898;2023-07-29T12:07:32;4.07;;;1.83;;
71696;SDS011;68167;59.120;37.898;2023-07-29T12:10:02;3.93;;;2.00;;
71696;SDS011;68167;59.120;37.898;2023-07-29T12:12:30;3.83;;;1.80;;
71696;SDS011;68167;59.120;37.898;2023-07-29T12:14:56;7.67;;;1.90;;
71696;SDS011;68167;59.120;37.898;2023-07-29T12:17:23;8.97;;;3.43;;
71696;SDS011;68167;59.120;37.898;2023-07-29T12:19:49;9.00;;;2.20;;
71696;SDS011;68167;59.120;37.898;2023-07-29T12:22:20;5.83;;;3.20;;
71696;SDS011;68167;59.120;37.898;2023-07-29T12:24:47;3.67;;;1.90;;
71696;SDS011;68167;59.120;37.898;2023-07-29T12:27:16;2.53;;;1.80;;
71696;SDS011;68167;59.120;37.898;2023-07-29T12:29:43;3.97;;;1.80;;
71696;SDS011;68167;59.120;37.898;2023-07-29T12:32:12;3.60;;;2.23;;
71696;SDS011;68167;59.120;37.898;2023-07-29T12:34:39;3.87;;;1.90;;
71696;SDS011;68167;59.120;37.898;2023-07-29T12:37:06;5.03;;;2.10;;
71696;SDS011;68167;59.120;37.898;2023-07-29T12:39:34;5.80;;;2.40;;
71696;SDS011;68167;59.120;37.898;2023-07-29T12:42:02;3.70;;;2.13;;
71696;SDS011;68167;59.120;37.898;2023-07-29T12:44:31;2.87;;;2.10;;
71696;SDS011;68167;59.120;37.898;2023-07-29T12:47:00;3.60;;;2.13;;
71696;SDS011;68167;59.120;37.898;2023-07-29T12:49:27;3.70;;;2.00;;
71696;SDS011;68167;59.120;37.898;2023-07-29T12:51:55;2.83;;;1.57;;
71696;SDS011;68167;59.120;37.898;2023-07-29T12:54:22;3.53;;;1.50;;
71696;SDS011;68167;59.120;37.898;2023-07-29T12:56:49;2.30;;;1.60;;
71696;SDS011;68167;59.120;37.898;2023-07-29T12:59:15;4.00;;;1.80;;
71696;SDS011;68167;59.120;37.898;2023-07-29T13:01:42;3.30;;;1.60;;
71696;SDS011;68167;59.120;37.898;2023-07-29T13:04:11;3.60;;;1.43;;
71696;SDS011;68167;59.120;37.898;2023-07-29T13:06:38;4.03;;;1.30;;
71696;SDS011;68167;59.120;37.898;2023-07-29T13:09:04;4.53;;;2.13;;
71696;SDS011;68167;59.120;37.898;2023-07-29T13:11:31;2.63;;;1.63;;
71696;SDS011;68167;59.120;37.898;2023-07-29T13:13:59;1.93;;;1.30;;
71696;SDS011;68167;59.120;37.898;2023-07-29T13:16:27;3.53;;;1.57;;
71696;SDS011;68167;59.120;37.898;2023-07-29T13:18:54;2.27;;;1.20;;
71696;SDS011;68167;59.120;37.898;2023-07-29T13:21:21;2.43;;;1.50;;
71696;SDS011;68167;59.120;37.898;2023-07-29T13:23:48;3.67;;;1.30;;
71696;SDS011;68167;59.120;37.898;2023-07-29T13:26:14;3.10;;;1.30;;
71696;SDS011;68167;59.120;37.898;2023-07-29T13:28:40;2.57;;;1.20;;
71696;SDS011;68167;59.120;37.898;2023-07-29T13:34:00;1.80;;;1.33;;
71696;SDS011;68167;59.120;37.898;2023-07-29T13:36:26;3.63;;;1.97;;
71696;SDS011;68167;59.120;37.898;2023-07-29T13:38:52;2.90;;;2.07;;
71696;SDS011;68167;59.120;37.898;2023-07-29T13:41:19;2.10;;;1.70;;
71696;SDS011;68167;59.120;37.898;2023-07-29T13:43:45;4.80;;;1.50;;
71696;SDS011;68167;59.120;37.898;2023-07-29T13:46:11;3.13;;;1.73;;
71696;SDS011;68167;59.120;37.898;2023-07-29T13:48:38;2.23;;;1.50;;
71696;SDS011;68167;59.120;37.898;2023-07-29T13:51:04;3.87;;;1.60;;
71696;SDS011;68167;59.120;37.898;2023-07-29T13:53:30;5.07;;;1.60;;
71696;SDS011;68167;59.120;37.898;2023-07-29T13:55:56;4.33;;;1.70;;
71696;SDS011;68167;59.120;37.898;2023-07-29T13:58:23;2.20;;;1.47;;
71696;SDS011;68167;59.120;37.898;2023-07-29T14:00:49;2.00;;;1.57;;
71696;SDS011;68167;59.120;37.898;2023-07-29T14:03:15;2.67;;;1.50;;
71696;SDS011;68167;59.120;37.898;2023-07-29T14:05:42;2.03;;;1.57;;
71696;SDS011;68167;59.120;37.898;2023-07-29T14:08:08;3.53;;;1.60;;
71696;SDS011;68167;59.120;37.898;2023-07-29T14:10:34;3.03;;;1.50;;
71696;SDS011;68167;59.120;37.898;2023-07-29T14:13:00;2.73;;;1.57;;
71696;SDS011;68167;59.120;37.898;2023-07-29T14:15:26;2.93;;;1.80;;
71696;SDS011;68167;59.120;37.898;2023-07-29T14:17:54;2.53;;;2.00;;
71696;SDS011;68167;59.120;37.898;2023-07-29T14:20:20;4.50;;;1.80;;
71696;SDS011;68167;59.120;37.898;2023-07-29T14:22:46;4.90;;;2.00;;
71696;SDS011;68167;59.120;37.898;2023-07-29T14:25:13;2.90;;;1.90;;
71696;SDS011;68167;59.120;37.898;2023-07-29T14:27:40;3.30;;;2.00;;
71696;SDS011;68167;59.120;37.898;2023-07-29T14:30:07;2.80;;;2.07;;
71696;SDS011;68167;59.120;37.898;2023-07-29T14:32:33;3.60;;;1.67;;
71696;SDS011;68167;59.120;37.898;2023-07-29T14:35:00;1.70;;;1.57;;
71696;SDS011;68167;59.120;37.898;2023-07-29T14:37:30;1.70;;;1.17;;
71696;SDS011;68167;59.120;37.898;2023-07-29T14:39:58;3.73;;;1.90;;
71696;SDS011;68167;59.120;37.898;2023-07-29T14:42:24;1.60;;;1.40;;
71696;SDS011;68167;59.120;37.898;2023-07-29T14:44:51;1.50;;;1.40;;
71696;SDS011;68167;59.120;37.898;2023-07-29T14:47:17;2.60;;;1.27;;
71696;SDS011;68167;59.120;37.898;2023-07-29T14:49:44;1.97;;;1.40;;
71696;SDS011;68167;59.120;37.898;2023-07-29T14:52:11;3.60;;;1.93;;
71696;SDS011;68167;59.120;37.898;2023-07-29T14:54:37;2.73;;;1.37;;